Time,TemperatureF,DewpointF,PressureIn,WindDirection,WindDirectionDegrees,WindSpeedMPH,WindSpeedGustMPH,Humidity,HourlyPrecipIn,Conditions,Clouds,dailyrainin,SoftwareType,DateUTC
2013-07-27 02:00:00,64.0,64.0,-100.00,ENE,58,0.0,2.0,97,0.00,,,-99.99,,2013-07-27 06:00:00,
2013-07-27 02:33:00,64.0,64.0,-100.00,ENE,58,0.0,2.0,97,0.00,,,-99.99,,2013-07-27 06:33:00,
2013-07-27 02:43:00,64.0,64.0,-100.00,ENE,58,0.0,2.0,97,0.00,,,-99.99,,2013-07-27 06:43:00,
2013-07-27 02:52:00,64.0,64.0,-100.00,ENE,58,0.0,2.0,97,0.00,,,-99.99,,2013-07-27 06:52:00,
2013-07-27 03:00:00,64.0,64.0,-100.00,SE,133,0.0,5.0,97,0.00,,,-99.99,,2013-07-27 07:00:00,
2013-07-27 03:34:00,64.0,64.0,-100.00,SE,133,0.0,5.0,97,0.00,,,-99.99,,2013-07-27 07:34:00,
2013-07-27 03:44:00,64.0,64.0,-100.00,SE,133,0.0,5.0,97,0.00,,,-99.99,,2013-07-27 07:44:00,
2013-07-27 03:53:00,64.0,64.0,-100.00,SE,133,0.0,5.0,97,0.00,,,-99.99,,2013-07-27 07:53:00,
2013-07-27 04:00:00,62.0,62.0,-100.00,SE,141,0.0,1.0,99,0.00,,,-99.99,,2013-07-27 08:00:00,
2013-07-27 04:32:00,62.0,62.0,-100.00,SE,141,0.0,1.0,99,0.00,,,-99.99,,2013-07-27 08:32:00,
2013-07-27 04:43:00,62.0,62.0,-100.00,SE,141,0.0,1.0,99,0.00,,,-99.99,,2013-07-27 08:43:00,
2013-07-27 04:53:00,62.0,62.0,-100.00,SE,141,0.0,1.0,99,0.00,,,-99.99,,2013-07-27 08:53:00,
2013-07-27 05:00:00,61.0,61.0,-100.00,SSE,150,3.0,5.0,100,0.00,,,-99.99,,2013-07-27 09:00:00,
2013-07-27 05:33:00,61.0,61.0,-100.00,SSE,150,3.0,5.0,100,0.00,,,-99.99,,2013-07-27 09:33:00,
2013-07-27 05:44:00,61.0,61.0,-100.00,SSE,150,3.0,5.0,100,0.00,,,-99.99,,2013-07-27 09:44:00,
2013-07-27 05:52:00,61.0,61.0,-100.00,SSE,150,3.0,5.0,100,0.00,,,-99.99,,2013-07-27 09:52:00,
2013-07-27 06:00:00,59.0,59.0,-100.00,SSE,161,0.0,5.0,100,0.00,,,-99.99,,2013-07-27 10:00:00,
2013-07-27 06:32:00,59.0,59.0,-100.00,SSE,161,0.0,5.0,100,0.00,,,-99.99,,2013-07-27 10:32:00,
2013-07-27 06:44:00,59.0,59.0,-100.00,SSE,161,0.0,5.0,100,0.00,,,-99.99,,2013-07-27 10:44:00,
2013-07-27 06:52:00,59.0,59.0,-100.00,SSE,161,0.0,5.0,100,0.00,,,-99.99,,2013-07-27 10:52:00,
2013-07-27 07:32:00,60.0,60.0,-100.00,SW,236,0.0,2.0,100,0.00,,,-99.99,,2013-07-27 11:32:00,
2013-07-27 07:44:00,60.0,60.0,-100.00,SW,236,0.0,2.0,100,0.00,,,-99.99,,2013-07-27 11:44:00,
2013-07-27 07:53:00,60.0,60.0,-100.00,SW,236,0.0,2.0,100,0.00,,,-99.99,,2013-07-27 11:53:00,
2013-07-27 09:00:00,75.0,69.0,-100.00,SW,215,5.0,10.0,82,0.00,,,-99.99,,2013-07-27 13:00:00,
2013-07-27 09:44:00,75.0,69.0,-100.00,SW,215,5.0,10.0,82,0.00,,,-99.99,,2013-07-27 13:44:00,
2013-07-27 09:53:00,75.0,69.0,-100.00,SW,215,5.0,10.0,82,0.00,,,-99.99,,2013-07-27 13:53:00,
2013-07-27 10:00:00,76.0,68.0,-100.00,SW,223,5.0,8.0,78,0.00,,,-99.99,,2013-07-27 14:00:00,
2013-07-27 10:33:00,76.0,68.0,-100.00,SW,223,5.0,8.0,78,0.00,,,-99.99,,2013-07-27 14:33:00,
2013-07-27 10:44:00,76.0,68.0,-100.00,SW,223,5.0,8.0,78,0.00,,,-99.99,,2013-07-27 14:44:00,
2013-07-27 10:54:00,76.0,68.0,-100.00,SW,223,5.0,8.0,78,0.00,,,-99.99,,2013-07-27 14:54:00,
2013-07-27 11:00:00,80.0,64.0,-100.00,South,184,5.0,11.0,59,0.00,,,-99.99,,2013-07-27 15:00:00,
2013-07-27 11:44:00,80.0,64.0,-100.00,South,184,5.0,11.0,59,0.00,,,-99.99,,2013-07-27 15:44:00,
2013-07-27 11:53:00,80.0,64.0,-100.00,South,184,5.0,11.0,59,0.00,,,-99.99,,2013-07-27 15:53:00,
2013-07-27 12:00:00,80.0,65.0,-100.00,SSW,199,5.0,11.0,60,0.00,,,-99.99,,2013-07-27 16:00:00,
2013-07-27 12:33:00,80.0,65.0,-100.00,SSW,199,5.0,11.0,60,0.00,,,-99.99,,2013-07-27 16:33:00,
2013-07-27 12:43:00,80.0,65.0,-100.00,SSW,199,5.0,11.0,60,0.00,,,-99.99,,2013-07-27 16:43:00,
2013-07-27 12:54:00,80.0,65.0,-100.00,SSW,199,5.0,11.0,60,0.00,,,-99.99,,2013-07-27 16:54:00,
2013-07-27 13:00:00,81.0,66.0,-100.00,SW,216,4.0,11.0,60,0.00,,,-99.99,,2013-07-27 17:00:00,
2013-07-27 13:32:00,81.0,66.0,-100.00,SW,216,4.0,11.0,60,0.00,,,-99.99,,2013-07-27 17:32:00,
2013-07-27 13:43:00,81.0,66.0,-100.00,SW,216,4.0,11.0,60,0.00,,,-99.99,,2013-07-27 17:43:00,
2013-07-27 13:54:00,81.0,66.0,-100.00,SW,216,4.0,11.0,60,0.00,,,-99.99,,2013-07-27 17:54:00,
2013-07-27 15:00:00,82.0,61.0,-100.00,SSE,158,3.0,10.0,50,0.44,,,-99.99,,2013-07-27 19:00:00,
2013-07-27 15:43:00,82.0,61.0,-100.00,SSE,158,3.0,10.0,50,0.44,,,-99.99,,2013-07-27 19:43:00,
2013-07-27 15:53:00,82.0,61.0,-100.00,SSE,158,3.0,10.0,50,0.44,,,-99.99,,2013-07-27 19:53:00,
2013-07-27 16:00:00,82.0,66.0,-100.00,SSE,159,5.0,9.0,59,0.00,,,-99.99,,2013-07-27 20:00:00,
2013-07-27 16:33:00,82.0,66.0,-100.00,SSE,159,5.0,9.0,59,0.00,,,-99.99,,2013-07-27 20:33:00,
2013-07-27 16:43:00,82.0,66.0,-100.00,SSE,159,5.0,9.0,59,0.00,,,-99.99,,2013-07-27 20:43:00,
2013-07-27 16:52:00,82.0,66.0,-100.00,SSE,159,5.0,9.0,59,0.00,,,-99.99,,2013-07-27 20:52:00,
2013-07-27 17:00:00,78.0,64.0,-100.00,SSE,168,3.0,16.0,61,0.00,,,-99.99,,2013-07-27 21:00:00,
2013-07-27 17:33:00,78.0,64.0,-100.00,SSE,168,3.0,16.0,61,0.00,,,-99.99,,2013-07-27 21:33:00,
2013-07-27 17:43:00,78.0,64.0,-100.00,SSE,168,3.0,16.0,61,0.00,,,-99.99,,2013-07-27 21:43:00,
2013-07-27 17:53:00,78.0,64.0,-100.00,SSE,168,3.0,16.0,61,0.00,,,-99.99,,2013-07-27 21:53:00,
2013-07-27 18:00:00,79.0,65.0,-100.00,SSE,154,4.0,15.0,64,0.00,,,-99.99,,2013-07-27 22:00:00,
2013-07-27 18:33:00,79.0,65.0,-100.00,SSE,154,4.0,15.0,64,0.00,,,-99.99,,2013-07-27 22:33:00,
2013-07-27 18:43:00,79.0,65.0,-100.00,SSE,154,4.0,15.0,64,0.00,,,-99.99,,2013-07-27 22:43:00,
2013-07-27 18:53:00,79.0,65.0,-100.00,SSE,154,4.0,15.0,64,0.00,,,-99.99,,2013-07-27 22:53:00,
2013-07-27 21:00:00,68.0,67.0,-100.00,SSE,148,0.0,6.0,95,0.00,,,-99.99,,2013-07-28 01:00:00,
2013-07-27 21:32:00,68.0,67.0,-100.00,SSE,148,0.0,6.0,95,0.00,,,-99.99,,2013-07-28 01:32:00,
2013-07-27 21:43:00,68.0,67.0,-100.00,SSE,148,0.0,6.0,95,0.00,,,-99.99,,2013-07-28 01:43:00,
2013-07-27 21:53:00,68.0,67.0,-100.00,SSE,148,0.0,6.0,95,0.00,,,-99.99,,2013-07-28 01:53:00,
2013-07-27 22:00:00,66.0,65.0,-100.00,SE,145,0.0,3.0,98,0.00,,,-99.99,,2013-07-28 02:00:00,
2013-07-27 22:32:00,66.0,65.0,-100.00,SE,145,0.0,3.0,98,0.00,,,-99.99,,2013-07-28 02:32:00,
2013-07-27 22:43:00,66.0,65.0,-100.00,SE,145,0.0,3.0,98,0.00,,,-99.99,,2013-07-28 02:43:00,
2013-07-27 22:53:00,66.0,65.0,-100.00,SE,145,0.0,3.0,98,0.00,,,-99.99,,2013-07-28 02:53:00,
2013-07-27 23:00:00,62.0,62.0,-100.00,ENE,63,0.0,2.0,99,0.00,,,-99.99,,2013-07-28 03:00:00,
2013-07-27 23:32:00,62.0,62.0,-100.00,ENE,63,0.0,2.0,99,0.00,,,-99.99,,2013-07-28 03:32:00,
2013-07-27 23:43:00,62.0,62.0,-100.00,ENE,63,0.0,2.0,99,0.00,,,-99.99,,2013-07-28 03:43:00,
2013-07-27 23:53:00,62.0,62.0,-100.00,ENE,63,0.0,2.0,99,0.00,,,-99.99,,2013-07-28 03:53:00,